Time;durP1;ratioP1;P1;durP2;ratioP2;P2;SDS_P1;SDS_P2;PMS_P1;PMS_P2;Temp;Humidity;BMP_temperature;BMP_pressure;BME280_temperature;BME280_humidity;BME280_pressure;Samples;Min_cycle;Max_cycle;Signal;HPM_P1;HPM_P2
2021/12/13 00:01:56;;;;;;;12.73;11.57;;;;;;;;;;4952203;28;20043;-74
2021/12/13 00:04:24;;;;;;;15.18;13.95;;;;;;;;;;4953190;28;20035;-74
2021/12/13 00:07:03;;;;;;;15.35;14.15;;;;;;;;;;4956142;28;20038;-74
2021/12/13 00:09:33;;;;;;;15.27;13.88;;;;;;;;;;4956710;28;20111;-75
2021/12/13 00:12:04;;;;;;;14.27;13.15;;;;;;;;;;4954854;28;20122;-74
2021/12/13 00:14:33;;;;;;;15.00;13.65;;;;;;;;;;4951185;28;20039;-75
2021/12/13 00:16:59;;;;;;;;;;;;;;;;;;4957887;28;20126;-74
2021/12/13 00:19:33;;;;;;;14.35;13.15;;;;;;;;;;4957132;28;19914;-74
2021/12/13 00:22:03;;;;;;;14.98;13.82;;;;;;;;;;4954059;28;20088;-75
2021/12/13 00:24:33;;;;;;;15.15;13.63;;;;;;;;;;4950573;28;20078;-75
2021/12/13 00:27:10;;;;;;;14.77;13.68;;;;;;;;;;4955027;28;20030;-74
2021/12/13 00:29:55;;;;;;;15.65;13.95;;;;;;;;;;4956952;28;20130;-74
2021/12/13 00:32:33;;;;;;;14.85;13.50;;;;;;;;;;4955213;28;20089;-75
2021/12/13 00:35:02;;;;;;;15.20;13.95;;;;;;;;;;4954337;28;20030;-74
2021/12/13 00:37:35;;;;;;;15.35;14.05;;;;;;;;;;4952172;28;20040;-74
2021/12/13 00:40:07;;;;;;;16.30;14.60;;;;;;;;;;4955721;28;20092;-75
2021/12/13 00:42:37;;;;;;;15.95;14.30;;;;;;;;;;4957217;28;20456;-75
2021/12/13 00:45:16;;;;;;;16.13;14.60;;;;;;;;;;4954037;28;20410;-74
2021/12/13 00:47:43;;;;;;;16.38;14.80;;;;;;;;;;4969428;28;20031;-74
2021/12/13 00:50:15;;;;;;;15.68;14.52;;;;;;;;;;4952412;28;20037;-74
2021/12/13 00:52:43;;;;;;;15.63;14.27;;;;;;;;;;4950742;28;20040;-74
2021/12/13 00:55:23;;;;;;;16.42;14.93;;;;;;;;;;4955495;28;20525;-74
2021/12/13 00:58:07;;;;;;;16.70;15.20;;;;;;;;;;4955460;28;20044;-74
2021/12/13 01:00:37;;;;;;;16.92;15.43;;;;;;;;;;4949710;28;20149;-74
2021/12/13 01:03:16;;;;;;;16.73;15.23;;;;;;;;;;4955989;28;20035;-74
2021/12/13 01:06:01;;;;;;;;;;;;;;;;;;4958024;28;20123;-74
2021/12/13 01:09:01;;;;;;;18.15;16.33;;;;;;;;;;4954853;28;19918;-74
2021/12/13 01:11:47;;;;;;;17.63;15.63;;;;;;;;;;4952924;28;20190;-74
2021/12/13 01:14:29;;;;;;;16.38;14.68;;;;;;;;;;4958316;28;20061;-74
2021/12/13 01:17:06;;;;;;;19.25;15.23;;;;;;;;;;4955821;28;20086;-74
2021/12/13 01:19:49;;;;;;;17.30;15.65;;;;;;;;;;4957038;28;20433;-74
2021/12/13 01:22:46;;;;;;;17.00;15.23;;;;;;;;;;4958216;28;20035;-74
2021/12/13 01:25:59;;;;;;;21.60;15.55;;;;;;;;;;4953999;28;20038;-74
2021/12/13 01:28:32;;;;;;;16.60;15.05;;;;;;;;;;4912957;29;20056;-74
2021/12/13 01:31:10;;;;;;;18.60;15.65;;;;;;;;;;4913345;29;20044;-74
2021/12/13 01:33:40;;;;;;;17.33;15.70;;;;;;;;;;4913477;29;20040;-74
2021/12/13 01:36:09;;;;;;;18.20;16.35;;;;;;;;;;4912154;29;20143;-74
2021/12/13 01:38:41;;;;;;;18.80;15.55;;;;;;;;;;4911990;29;20402;-74
2021/12/13 01:41:12;;;;;;;16.80;15.13;;;;;;;;;;4911101;29;20327;-74
2021/12/13 01:43:46;;;;;;;18.50;15.00;;;;;;;;;;4913058;29;20036;-74
2021/12/13 01:46:12;;;;;;;17.45;15.20;;;;;;;;;;4912156;29;20040;-74
2021/12/13 01:48:44;;;;;;;17.77;16.02;;;;;;;;;;4911965;29;20040;-74
2021/12/13 01:51:14;;;;;;;17.35;15.60;;;;;;;;;;4914192;29;20052;-74
2021/12/13 01:53:47;;;;;;;16.83;15.45;;;;;;;;;;4913760;29;20092;-74
2021/12/13 01:56:53;;;;;;;17.75;16.05;;;;;;;;;;4912152;29;20172;-74
2021/12/13 02:02:01;;;;;;;;;;;;;;;;;;4911234;29;20067;-74
2021/12/13 02:04:28;;;;;;;16.38;14.75;;;;;;;;;;4933991;28;19916;-74
2021/12/13 02:07:01;;;;;;;17.02;15.32;;;;;;;;;;4956455;28;20039;-74
2021/12/13 02:09:31;;;;;;;17.05;15.35;;;;;;;;;;4958732;28;20060;-74
2021/12/13 02:12:00;;;;;;;16.42;14.77;;;;;;;;;;4958631;28;20478;-74
2021/12/13 02:14:31;;;;;;;17.03;15.43;;;;;;;;;;4956650;28;20090;-74
2021/12/13 02:17:12;;;;;;;16.27;14.88;;;;;;;;;;4953530;28;20047;-74
2021/12/13 02:19:44;;;;;;;19.80;15.70;;;;;;;;;;4947626;28;20491;-74
2021/12/13 02:22:47;;;;;;;17.33;14.70;;;;;;;;;;4939446;28;20043;-74
2021/12/13 02:25:32;;;;;;;16.23;14.93;;;;;;;;;;4947264;29;20046;-74
2021/12/13 02:28:01;;;;;;;16.38;15.05;;;;;;;;;;4947470;28;20204;-74
2021/12/13 02:30:44;;;;;;;15.52;14.27;;;;;;;;;;4938166;28;20039;-74
2021/12/13 02:33:19;;;;;;;16.38;14.93;;;;;;;;;;4948908;28;20273;-74
2021/12/13 02:35:48;;;;;;;21.40;16.17;;;;;;;;;;4936994;28;20545;-74
2021/12/13 02:38:16;;;;;;;17.75;16.05;;;;;;;;;;4945137;28;20039;-74
2021/12/13 02:40:42;;;;;;;18.33;16.52;;;;;;;;;;4948479;28;20399;-74
2021/12/13 02:43:11;;;;;;;18.25;16.55;;;;;;;;;;4933710;29;20050;-74
2021/12/13 02:45:44;;;;;;;18.35;16.50;;;;;;;;;;4948457;28;20035;-74
2021/12/13 02:48:24;;;;;;;18.58;16.73;;;;;;;;;;4939511;28;20134;-74
2021/12/13 02:51:05;;;;;;;19.50;17.52;;;;;;;;;;4947088;29;20047;-74
2021/12/13 02:53:40;;;;;;;19.50;17.50;;;;;;;;;;4936147;28;20054;-74
2021/12/13 02:56:06;;;;;;;21.20;17.30;;;;;;;;;;4943163;28;20039;-74
2021/12/13 02:58:34;;;;;;;21.13;18.92;;;;;;;;;;4933713;29;20047;-74
2021/12/13 03:01:00;;;;;;;21.53;19.30;;;;;;;;;;4937208;28;20055;-74
2021/12/13 03:03:29;;;;;;;22.05;19.55;;;;;;;;;;4949905;28;20132;-74
2021/12/13 03:05:57;;;;;;;21.42;19.25;;;;;;;;;;4932829;29;20367;-74
2021/12/13 03:08:29;;;;;;;23.45;19.70;;;;;;;;;;4936086;29;20037;-74
2021/12/13 03:11:00;;;;;;;26.77;20.75;;;;;;;;;;4940470;28;20027;-74
2021/12/13 03:13:25;;;;;;;22.40;20.00;;;;;;;;;;4933294;29;20040;-74
2021/12/13 03:16:02;;;;;;;28.20;20.10;;;;;;;;;;4932908;29;20045;-74
2021/12/13 03:18:54;;;;;;;24.27;19.42;;;;;;;;;;4943801;28;20028;-74
2021/12/13 03:22:11;;;;;;;24.65;20.17;;;;;;;;;;4936186;28;20043;-74
2021/12/13 03:24:57;;;;;;;27.63;19.55;;;;;;;;;;4932094;29;20043;-74
2021/12/13 03:27:32;;;;;;;23.30;19.70;;;;;;;;;;4947548;28;20039;-74
2021/12/13 03:30:15;;;;;;;21.95;19.70;;;;;;;;;;4932982;29;20054;-74
2021/12/13 03:32:52;;;;;;;25.98;20.58;;;;;;;;;;4947426;28;20447;-74
2021/12/13 03:35:45;;;;;;;25.02;20.25;;;;;;;;;;4942914;28;20404;-74
2021/12/13 03:38:18;;;;;;;25.30;20.55;;;;;;;;;;4932993;29;20487;-74
2021/12/13 03:40:46;;;;;;;25.08;19.83;;;;;;;;;;4932111;28;20073;-74
2021/12/13 03:43:17;;;;;;;31.85;20.30;;;;;;;;;;4936971;28;20057;-74
2021/12/13 03:45:53;;;;;;;25.30;20.83;;;;;;;;;;4948097;28;20101;-74
2021/12/13 03:48:22;;;;;;;34.40;21.23;;;;;;;;;;4942391;28;20039;-74
2021/12/13 03:50:51;;;;;;;27.75;20.98;;;;;;;;;;4937732;28;20102;-74
2021/12/13 03:53:21;;;;;;;28.98;21.75;;;;;;;;;;4933970;28;20039;-74
2021/12/13 03:55:52;;;;;;;29.85;21.27;;;;;;;;;;4955189;28;20038;-74
2021/12/13 03:58:21;;;;;;;53.28;22.38;;;;;;;;;;4944053;29;20035;-74
2021/12/13 04:00:57;;;;;;;73.25;20.92;;;;;;;;;;4940968;28;20023;-74
2021/12/13 04:03:24;;;;;;;43.85;21.50;;;;;;;;;;4931689;28;20046;-74
2021/12/13 04:05:50;;;;;;;200.38;23.23;;;;;;;;;;4944674;28;20513;-74
2021/12/13 04:08:19;;;;;;;40.53;21.20;;;;;;;;;;4932166;29;20039;-74
2021/12/13 04:10:49;;;;;;;34.30;22.52;;;;;;;;;;4932602;29;20082;-73
2021/12/13 04:13:18;;;;;;;55.38;20.98;;;;;;;;;;4936379;28;20058;-73
2021/12/13 04:16:02;;;;;;;;;;;;;;;;;;4942132;28;20652;-74
2021/12/13 04:21:46;;;;;;;81.22;21.33;;;;;;;;;;4943785;29;20501;-69
2021/12/13 04:24:21;;;;;;;279.90;26.77;;;;;;;;;;4928772;29;20422;-70
2021/12/13 04:26:51;;;;;;;67.65;22.33;;;;;;;;;;4950704;28;20059;-70
2021/12/13 04:29:25;;;;;;;305.63;25.92;;;;;;;;;;4943304;28;20036;-70
2021/12/13 04:31:53;;;;;;;415.25;28.35;;;;;;;;;;4941625;28;20101;-69
2021/12/13 04:34:24;;;;;;;265.00;24.60;;;;;;;;;;4941935;28;20367;-71
2021/12/13 04:36:53;;;;;;;204.00;23.35;;;;;;;;;;4948992;29;20121;-71
2021/12/13 04:39:34;;;;;;;108.03;23.15;;;;;;;;;;4931056;29;20126;-71
2021/12/13 04:42:09;;;;;;;254.40;26.58;;;;;;;;;;4936337;28;20268;-71
2021/12/13 04:44:37;;;;;;;371.65;26.80;;;;;;;;;;4945043;29;20035;-70
2021/12/13 04:47:19;;;;;;;336.20;26.35;;;;;;;;;;4935148;29;20046;-70
2021/12/13 04:49:52;;;;;;;189.98;22.98;;;;;;;;;;4931766;29;20036;-71
2021/12/13 04:52:20;;;;;;;267.52;26.08;;;;;;;;;;4940303;28;20126;-71
2021/12/13 04:54:53;;;;;;;172.25;24.13;;;;;;;;;;4934138;28;20114;-70
2021/12/13 04:57:20;;;;;;;162.35;23.58;;;;;;;;;;4960670;28;20130;-71
2021/12/13 04:59:52;;;;;;;210.32;25.23;;;;;;;;;;4951513;28;20410;-71
2021/12/13 05:02:18;;;;;;;520.85;31.50;;;;;;;;;;4953118;28;20034;-71
2021/12/13 05:04:44;;;;;;;116.68;24.02;;;;;;;;;;4953448;28;20402;-71
2021/12/13 05:07:10;;;;;;;139.70;23.63;;;;;;;;;;4951081;28;20027;-70
2021/12/13 05:09:36;;;;;;;87.03;23.38;;;;;;;;;;4954885;28;20118;-71
2021/12/13 05:12:01;;;;;;;116.30;24.33;;;;;;;;;;4954477;28;20031;-70
2021/12/13 05:14:38;;;;;;;217.38;24.63;;;;;;;;;;4956276;28;20027;-70
2021/12/13 05:17:35;;;;;;;111.00;23.85;;;;;;;;;;4951604;28;20406;-70
2021/12/13 05:20:21;;;;;;;177.00;24.27;;;;;;;;;;4952464;28;20040;-70
2021/12/13 05:22:59;;;;;;;126.25;23.17;;;;;;;;;;4954201;28;20034;-70
2021/12/13 05:25:31;;;;;;;139.63;22.98;;;;;;;;;;4947072;28;20131;-71
2021/12/13 05:28:03;;;;;;;99.13;23.65;;;;;;;;;;4942633;29;20059;-70
2021/12/13 05:30:30;;;;;;;193.77;26.42;;;;;;;;;;4936111;28;20119;-70
2021/12/13 05:33:00;;;;;;;79.95;23.30;;;;;;;;;;4947312;28;20046;-70
2021/12/13 05:35:34;;;;;;;78.28;22.60;;;;;;;;;;4946416;28;20048;-70
2021/12/13 05:38:05;;;;;;;78.90;22.98;;;;;;;;;;4936460;29;20051;-70
2021/12/13 05:40:39;;;;;;;175.75;25.30;;;;;;;;;;4931011;29;20044;-70
2021/12/13 05:43:25;;;;;;;68.25;23.77;;;;;;;;;;4933555;29;20439;-71
2021/12/13 05:45:58;;;;;;;73.53;22.80;;;;;;;;;;4945995;29;20483;-69
2021/12/13 05:48:36;;;;;;;69.80;25.05;;;;;;;;;;4932851;29;20047;-71
2021/12/13 05:51:33;;;;;;;131.95;25.83;;;;;;;;;;4914409;28;20110;-70
2021/12/13 05:54:09;;;;;;;183.57;26.38;;;;;;;;;;4942729;28;20109;-70
2021/12/13 05:56:49;;;;;;;208.65;25.90;;;;;;;;;;4945855;28;20219;-70
2021/12/13 05:59:17;;;;;;;52.42;23.88;;;;;;;;;;4941535;28;20172;-71
2021/12/13 06:01:54;;;;;;;104.45;26.15;;;;;;;;;;4946867;28;20406;-70
2021/12/13 06:04:30;;;;;;;40.17;23.08;;;;;;;;;;4949729;29;20057;-70
2021/12/13 06:06:56;;;;;;;34.08;23.27;;;;;;;;;;4948642;29;20522;-71
2021/12/13 06:09:40;;;;;;;39.95;23.27;;;;;;;;;;4944504;28;20118;-71
2021/12/13 06:12:10;;;;;;;34.70;22.83;;;;;;;;;;4945394;29;20166;-70
2021/12/13 06:14:36;;;;;;;34.88;22.83;;;;;;;;;;4934910;28;20110;-70
2021/12/13 06:17:03;;;;;;;29.73;21.15;;;;;;;;;;4933293;28;20087;-70
2021/12/13 06:19:40;;;;;;;34.80;22.50;;;;;;;;;;4947014;29;20062;-70
2021/12/13 06:22:20;;;;;;;32.05;22.05;;;;;;;;;;4948753;28;20043;-70
2021/12/13 06:25:10;;;;;;;36.00;23.65;;;;;;;;;;4947722;29;20045;-70
2021/12/13 06:27:50;;;;;;;32.75;23.42;;;;;;;;;;4965359;28;20032;-71
2021/12/13 06:30:24;;;;;;;33.13;22.58;;;;;;;;;;4939568;29;20089;-70
2021/12/13 06:32:50;;;;;;;38.03;22.70;;;;;;;;;;4950820;29;20035;-70
2021/12/13 06:35:31;;;;;;;37.33;23.88;;;;;;;;;;4952614;28;20414;-70
2021/12/13 06:37:59;;;;;;;39.40;23.35;;;;;;;;;;4927371;29;20039;-70
2021/12/13 06:40:27;;;;;;;37.92;22.55;;;;;;;;;;4940063;29;20475;-70
2021/12/13 06:42:56;;;;;;;34.47;22.52;;;;;;;;;;4933882;29;20035;-70
2021/12/13 06:45:26;;;;;;;31.92;21.73;;;;;;;;;;4933031;28;20044;-70
2021/12/13 06:47:55;;;;;;;32.03;21.70;;;;;;;;;;4927768;29;20203;-70
2021/12/13 06:50:25;;;;;;;39.00;22.80;;;;;;;;;;4935002;29;20435;-70
2021/12/13 06:53:07;;;;;;;32.25;21.50;;;;;;;;;;4933669;29;20562;-70
2021/12/13 06:55:33;;;;;;;30.42;22.15;;;;;;;;;;4941509;28;20371;-70
2021/12/13 06:58:00;;;;;;;29.70;22.55;;;;;;;;;;4938257;29;20573;-70
2021/12/13 07:00:32;;;;;;;31.48;22.83;;;;;;;;;;4936535;28;20126;-70
2021/12/13 07:03:08;;;;;;;29.17;21.90;;;;;;;;;;4944806;29;20042;-70
2021/12/13 07:05:43;;;;;;;34.13;22.65;;;;;;;;;;4948027;29;20506;-70
2021/12/13 07:08:15;;;;;;;149.40;24.63;;;;;;;;;;4933181;29;20040;-70
2021/12/13 07:10:43;;;;;;;58.25;22.60;;;;;;;;;;4944611;29;20381;-70
2021/12/13 07:13:35;;;;;;;39.72;21.08;;;;;;;;;;4948812;28;20038;-70
2021/12/13 07:16:13;;;;;;;42.72;27.10;;;;;;;;;;4932731;29;20036;-70
2021/12/13 07:18:54;;;;;;;36.78;22.25;;;;;;;;;;4932751;29;20043;-70
2021/12/13 07:21:25;;;;;;;38.65;21.80;;;;;;;;;;4938210;29;20047;-70
2021/12/13 07:24:16;;;;;;;98.25;22.45;;;;;;;;;;4949658;29;20069;-70
2021/12/13 07:26:54;;;;;;;42.95;21.52;;;;;;;;;;4944567;29;20110;-70
2021/12/13 07:29:23;;;;;;;70.57;22.95;;;;;;;;;;4944451;28;20031;-69
2021/12/13 07:32:16;;;;;;;63.38;23.60;;;;;;;;;;4945042;28;20431;-69
2021/12/13 07:35:06;;;;;;;64.40;22.00;;;;;;;;;;4940324;29;20118;-70
2021/12/13 07:37:37;;;;;;;35.92;21.67;;;;;;;;;;4939416;29;20372;-70
2021/12/13 07:40:27;;;;;;;87.43;26.75;;;;;;;;;;4941155;29;20510;-70
2021/12/13 07:43:08;;;;;;;71.22;25.05;;;;;;;;;;4946283;29;20053;-69
2021/12/13 07:45:45;;;;;;;42.08;23.90;;;;;;;;;;4942684;28;20038;-69
2021/12/13 07:48:18;;;;;;;36.63;21.88;;;;;;;;;;4946201;29;20047;-69
2021/12/13 07:50:56;;;;;;;33.85;22.30;;;;;;;;;;4938647;29;20059;-70
2021/12/13 07:53:25;;;;;;;38.65;23.63;;;;;;;;;;4944809;29;20043;-69
2021/12/13 07:55:51;;;;;;;39.15;24.38;;;;;;;;;;4948063;28;20507;-70
2021/12/13 07:58:33;;;;;;;33.42;22.33;;;;;;;;;;4940610;29;20043;-70
2021/12/13 08:01:21;;;;;;;54.97;23.05;;;;;;;;;;4936422;28;20023;-70
2021/12/13 08:04:07;;;;;;;49.05;22.13;;;;;;;;;;4943101;28;20520;-70
2021/12/13 08:06:39;;;;;;;41.65;21.40;;;;;;;;;;4944347;29;20039;-69
2021/12/13 08:09:09;;;;;;;37.15;22.65;;;;;;;;;;4945195;29;20031;-70
2021/12/13 08:11:56;;;;;;;47.25;23.90;;;;;;;;;;4950304;29;20203;-69
2021/12/13 08:14:29;;;;;;;33.10;22.75;;;;;;;;;;4946731;28;20028;-70
2021/12/13 08:16:55;;;;;;;42.63;23.35;;;;;;;;;;4937439;28;20039;-71
2021/12/13 08:19:26;;;;;;;44.05;22.40;;;;;;;;;;4946513;28;20414;-70
2021/12/13 08:21:56;;;;;;;37.35;22.33;;;;;;;;;;4931534;28;20119;-70
2021/12/13 08:24:27;;;;;;;50.90;20.73;;;;;;;;;;4944246;29;20031;-71
2021/12/13 08:27:00;;;;;;;49.97;21.58;;;;;;;;;;4932065;29;20115;-71
2021/12/13 08:29:31;;;;;;;41.67;25.90;;;;;;;;;;4932319;29;20043;-70
2021/12/13 08:32:00;;;;;;;58.60;30.67;;;;;;;;;;4944869;28;20537;-72
2021/12/13 08:34:33;;;;;;;40.15;23.35;;;;;;;;;;4941028;29;20039;-71
2021/12/13 08:37:00;;;;;;;34.33;22.25;;;;;;;;;;4932401;29;20055;-69
2021/12/13 08:39:35;;;;;;;71.72;22.15;;;;;;;;;;4934199;28;20408;-70
2021/12/13 08:42:10;;;;;;;36.15;24.48;;;;;;;;;;4948787;28;20086;-70
2021/12/13 08:44:44;;;;;;;51.45;30.83;;;;;;;;;;4932355;29;20114;-70
2021/12/13 08:47:16;;;;;;;39.63;23.08;;;;;;;;;;4932530;29;20082;-70
2021/12/13 08:50:07;;;;;;;44.33;24.30;;;;;;;;;;4932311;29;20035;-69
2021/12/13 08:52:36;;;;;;;58.33;32.78;;;;;;;;;;4943984;29;20070;-70
2021/12/13 08:55:16;;;;;;;38.58;25.23;;;;;;;;;;4950216;29;20089;-70
2021/12/13 08:57:53;;;;;;;32.88;22.38;;;;;;;;;;4941345;28;20036;-69
2021/12/13 09:00:30;;;;;;;36.65;23.83;;;;;;;;;;4938990;28;20048;-69
2021/12/13 09:03:02;;;;;;;32.47;22.58;;;;;;;;;;4941469;29;20035;-70
2021/12/13 09:05:33;;;;;;;32.90;22.48;;;;;;;;;;4944267;28;20443;-70
2021/12/13 09:08:05;;;;;;;26.48;19.63;;;;;;;;;;4937160;28;20044;-71
2021/12/13 09:10:52;;;;;;;46.70;27.98;;;;;;;;;;4931557;29;20046;-71
2021/12/13 09:13:33;;;;;;;49.50;32.00;;;;;;;;;;4945243;29;20402;-71
2021/12/13 09:16:00;;;;;;;49.78;28.75;;;;;;;;;;4941861;29;20028;-71
2021/12/13 09:18:25;;;;;;;31.77;22.48;;;;;;;;;;4939444;29;20114;-70
2021/12/13 09:20:55;;;;;;;30.35;21.80;;;;;;;;;;4944487;29;20039;-71
2021/12/13 09:23:22;;;;;;;30.52;21.95;;;;;;;;;;4946863;29;20039;-70
2021/12/13 09:25:52;;;;;;;26.80;20.85;;;;;;;;;;4938683;29;20049;-71
2021/12/13 09:28:22;;;;;;;27.67;20.90;;;;;;;;;;4961406;28;20105;-71
2021/12/13 09:31:01;;;;;;;24.60;20.80;;;;;;;;;;4945757;28;20533;-71
2021/12/13 09:33:29;;;;;;;28.40;22.85;;;;;;;;;;4947059;28;20123;-71
2021/12/13 09:36:03;;;;;;;27.13;21.88;;;;;;;;;;4936612;28;20043;-71
2021/12/13 09:38:31;;;;;;;29.55;22.08;;;;;;;;;;4939786;29;20040;-71
2021/12/13 09:41:25;;;;;;;31.13;23.80;;;;;;;;;;4946652;28;20093;-70
2021/12/13 09:43:54;;;;;;;27.60;22.48;;;;;;;;;;4949278;29;20054;-71
2021/12/13 09:46:48;;;;;;;25.95;21.67;;;;;;;;;;4937380;29;20045;-71
2021/12/13 09:49:26;;;;;;;29.73;20.95;;;;;;;;;;4948102;29;20216;-71
2021/12/13 09:51:58;;;;;;;80.93;20.85;;;;;;;;;;4944721;29;20050;-71
2021/12/13 09:54:29;;;;;;;256.30;24.50;;;;;;;;;;4934547;29;20050;-71
2021/12/13 09:56:57;;;;;;;221.27;24.27;;;;;;;;;;4936046;28;20190;-71
2021/12/13 09:59:33;;;;;;;151.43;23.37;;;;;;;;;;4945437;29;20042;-71
2021/12/13 10:02:02;;;;;;;473.58;27.58;;;;;;;;;;4927823;29;20443;-71
2021/12/13 10:04:41;;;;;;;29.20;21.38;;;;;;;;;;4948833;29;20032;-71
2021/12/13 10:07:13;;;;;;;47.05;20.00;;;;;;;;;;4934508;29;20036;-70
2021/12/13 10:09:54;;;;;;;282.02;24.02;;;;;;;;;;4934346;29;20035;-70
2021/12/13 10:12:31;;;;;;;426.90;26.00;;;;;;;;;;4935528;29;20048;-70
2021/12/13 10:15:06;;;;;;;247.60;22.77;;;;;;;;;;4945213;29;20114;-70
2021/12/13 10:17:36;;;;;;;259.70;23.10;;;;;;;;;;4934297;29;20087;-70
2021/12/13 10:20:21;;;;;;;159.63;20.58;;;;;;;;;;4944541;29;20046;-70
2021/12/13 10:22:48;;;;;;;140.05;20.67;;;;;;;;;;4944984;29;20035;-70
2021/12/13 10:25:28;;;;;;;112.05;20.92;;;;;;;;;;4940599;29;20039;-70
2021/12/13 10:27:54;;;;;;;34.45;20.65;;;;;;;;;;4952209;29;20031;-70
2021/12/13 10:30:37;;;;;;;217.25;22.55;;;;;;;;;;4946445;28;20530;-70
2021/12/13 10:33:04;;;;;;;39.25;19.73;;;;;;;;;;4944684;29;20061;-70
2021/12/13 10:35:38;;;;;;;30.10;20.52;;;;;;;;;;4937611;29;20414;-70
2021/12/13 10:38:10;;;;;;;25.67;20.05;;;;;;;;;;4933808;29;20039;-70
2021/12/13 10:40:49;;;;;;;55.20;20.85;;;;;;;;;;4944210;28;20035;-70
2021/12/13 10:43:19;;;;;;;59.38;20.08;;;;;;;;;;4944007;29;20175;-69
2021/12/13 10:45:57;;;;;;;31.80;20.23;;;;;;;;;;4951955;28;20047;-69
2021/12/13 10:48:27;;;;;;;27.77;19.45;;;;;;;;;;4941711;29;20031;-69
2021/12/13 10:51:06;;;;;;;37.40;18.77;;;;;;;;;;4933264;29;20103;-70
2021/12/13 10:53:33;;;;;;;45.83;20.45;;;;;;;;;;4942876;29;20046;-69
2021/12/13 10:56:05;;;;;;;282.65;23.55;;;;;;;;;;4940211;29;20398;-69
2021/12/13 10:58:40;;;;;;;276.45;23.95;;;;;;;;;;4949956;29;20075;-68
2021/12/13 11:01:16;;;;;;;76.88;21.58;;;;;;;;;;4946050;28;20085;-69
2021/12/13 11:03:42;;;;;;;209.25;22.10;;;;;;;;;;4961597;28;20673;-69
2021/12/13 11:06:10;;;;;;;213.25;21.95;;;;;;;;;;4951790;29;20150;-70
2021/12/13 11:08:41;;;;;;;83.38;21.40;;;;;;;;;;4939733;29;20046;-69
2021/12/13 11:11:30;;;;;;;220.57;23.45;;;;;;;;;;4950738;28;20027;-69
2021/12/13 11:14:01;;;;;;;67.47;21.45;;;;;;;;;;4933039;29;20050;-68
2021/12/13 11:16:34;;;;;;;290.60;24.38;;;;;;;;;;4943440;29;20113;-71
2021/12/13 11:19:02;;;;;;;125.85;21.67;;;;;;;;;;4951117;29;20073;-69
2021/12/13 11:21:33;;;;;;;54.97;20.80;;;;;;;;;;4954528;28;20380;-70
2021/12/13 11:23:59;;;;;;;40.95;20.60;;;;;;;;;;4944747;29;20533;-70
2021/12/13 11:26:38;;;;;;;317.92;24.77;;;;;;;;;;4954032;29;20051;-70
2021/12/13 11:29:05;;;;;;;31.05;20.40;;;;;;;;;;4944650;29;20111;-71
2021/12/13 11:31:30;;;;;;;89.10;19.50;;;;;;;;;;4941324;29;20079;-69
2021/12/13 11:34:03;;;;;;;86.70;19.83;;;;;;;;;;4950750;29;20083;-70
2021/12/13 11:36:41;;;;;;;54.80;20.00;;;;;;;;;;4959943;28;20403;-70
2021/12/13 11:39:12;;;;;;;80.72;21.17;;;;;;;;;;4947079;29;20059;-70
2021/12/13 11:42:23;;;;;;;79.82;19.33;;;;;;;;;;4950945;29;20359;-70
2021/12/13 11:45:25;;;;;;;101.53;20.48;;;;;;;;;;4938512;28;20410;-70
2021/12/13 11:48:23;;;;;;;44.92;18.98;;;;;;;;;;4950475;28;20023;-71
2021/12/13 11:51:05;;;;;;;31.60;19.23;;;;;;;;;;4927147;29;20054;-69
2021/12/13 11:54:06;;;;;;;57.90;18.45;;;;;;;;;;4949773;28;20402;-69
2021/12/13 11:57:20;;;;;;;73.32;19.65;;;;;;;;;;4929790;29;20031;-68
2021/12/13 12:00:05;;;;;;;56.22;19.27;;;;;;;;;;4937109;29;20047;-68
2021/12/13 12:02:43;;;;;;;31.02;19.73;;;;;;;;;;4949732;29;20506;-70
2021/12/13 12:05:31;;;;;;;70.35;19.75;;;;;;;;;;4944528;29;20050;-72
2021/12/13 12:08:12;;;;;;;33.10;18.42;;;;;;;;;;4946091;29;20042;-70
2021/12/13 12:10:50;;;;;;;28.45;19.15;;;;;;;;;;4938822;28;20040;-69
2021/12/13 12:13:32;;;;;;;32.45;19.83;;;;;;;;;;4960144;28;20062;-69
2021/12/13 12:16:02;;;;;;;24.90;18.58;;;;;;;;;;4944371;29;20039;-69
2021/12/13 12:18:32;;;;;;;24.75;18.45;;;;;;;;;;4947395;28;20055;-69
2021/12/13 12:21:34;;;;;;;27.40;19.88;;;;;;;;;;4958535;28;20094;-69
2021/12/13 12:24:10;;;;;;;26.48;18.92;;;;;;;;;;4937042;29;20047;-70
2021/12/13 12:26:36;;;;;;;25.88;20.75;;;;;;;;;;4949321;29;20223;-71
2021/12/13 12:29:09;;;;;;;23.88;18.70;;;;;;;;;;4935853;29;20051;-70
2021/12/13 12:31:42;;;;;;;27.67;19.85;;;;;;;;;;4941177;29;20036;-69
2021/12/13 12:34:10;;;;;;;22.08;17.23;;;;;;;;;;4944857;29;20337;-70
2021/12/13 12:36:47;;;;;;;25.90;18.27;;;;;;;;;;4942304;29;20094;-69
2021/12/13 12:39:38;;;;;;;25.40;18.77;;;;;;;;;;4942719;28;20054;-70
2021/12/13 12:42:16;;;;;;;24.33;18.80;;;;;;;;;;4935206;29;20047;-72
2021/12/13 12:44:54;;;;;;;26.05;18.40;;;;;;;;;;4943747;29;20098;-70
2021/12/13 12:47:35;;;;;;;25.02;18.77;;;;;;;;;;4935353;29;20501;-71
2021/12/13 12:50:13;;;;;;;30.50;19.10;;;;;;;;;;4914576;29;20058;-70
2021/12/13 12:52:54;;;;;;;20.77;16.25;;;;;;;;;;4941679;29;20507;-70
2021/12/13 12:55:24;;;;;;;22.35;15.98;;;;;;;;;;4946169;29;20074;-71
2021/12/13 12:57:50;;;;;;;21.98;17.50;;;;;;;;;;4937488;29;20405;-70
2021/12/13 13:00:22;;;;;;;22.50;17.48;;;;;;;;;;4954967;28;20047;-69
2021/12/13 13:02:50;;;;;;;19.45;17.00;;;;;;;;;;4933870;29;20059;-71
2021/12/13 13:05:20;;;;;;;19.58;16.67;;;;;;;;;;4949574;29;20035;-71
2021/12/13 13:07:50;;;;;;;17.67;15.57;;;;;;;;;;4958852;28;20171;-70
2021/12/13 13:12:54;;;;;;;21.52;16.88;;;;;;;;;;4950678;29;20139;-70
2021/12/13 13:15:27;;;;;;;20.85;17.23;;;;;;;;;;4943520;29;20043;-70
2021/12/13 13:18:09;;;;;;;18.45;16.55;;;;;;;;;;4934597;28;20047;-71
2021/12/13 13:20:53;;;;;;;18.60;15.52;;;;;;;;;;4955747;28;20079;-71
2021/12/13 13:23:22;;;;;;;23.05;15.85;;;;;;;;;;4959491;28;20070;-70
2021/12/13 13:25:54;;;;;;;20.13;17.00;;;;;;;;;;4949029;29;20121;-70
2021/12/13 13:28:33;;;;;;;21.23;15.45;;;;;;;;;;4948089;28;20031;-69
2021/12/13 13:31:06;;;;;;;22.25;16.73;;;;;;;;;;4947013;29;20061;-69
2021/12/13 13:33:36;;;;;;;21.35;16.95;;;;;;;;;;4950561;29;20116;-70
2021/12/13 13:36:05;;;;;;;15.55;14.05;;;;;;;;;;4941169;28;20035;-70
2021/12/13 13:38:31;;;;;;;75.00;36.03;;;;;;;;;;4963420;28;20078;-70
2021/12/13 13:40:58;;;;;;;16.30;13.93;;;;;;;;;;4940646;28;20469;-69
2021/12/13 13:43:25;;;;;;;13.82;12.35;;;;;;;;;;4919728;29;20058;-71
2021/12/13 13:45:54;;;;;;;28.40;19.60;;;;;;;;;;4961163;28;20046;-69
2021/12/13 13:48:26;;;;;;;16.02;14.32;;;;;;;;;;4951458;29;20042;-70
2021/12/13 13:50:58;;;;;;;19.23;17.23;;;;;;;;;;4955768;28;20047;-70
2021/12/13 13:53:39;;;;;;;14.98;13.65;;;;;;;;;;4948281;29;20040;-69
2021/12/13 13:56:10;;;;;;;14.40;13.10;;;;;;;;;;4947591;29;20042;-72
2021/12/13 13:58:42;;;;;;;14.02;12.63;;;;;;;;;;4950958;29;20636;-70
2021/12/13 14:01:41;;;;;;;15.05;13.45;;;;;;;;;;4952110;28;20360;-72
2021/12/13 14:04:25;;;;;;;15.00;13.55;;;;;;;;;;4946197;28;20031;-69
2021/12/13 14:06:55;;;;;;;17.35;15.77;;;;;;;;;;4932232;29;20494;-69
2021/12/13 14:09:28;;;;;;;13.98;12.77;;;;;;;;;;4942216;29;20071;-68
2021/12/13 14:11:59;;;;;;;14.40;12.98;;;;;;;;;;4952039;29;20047;-70
2021/12/13 14:14:39;;;;;;;13.50;12.30;;;;;;;;;;4947979;29;20093;-69
2021/12/13 14:17:05;;;;;;;16.00;14.40;;;;;;;;;;4945693;29;20035;-71
2021/12/13 14:19:42;;;;;;;13.57;12.38;;;;;;;;;;4950925;28;20043;-70
2021/12/13 14:22:09;;;;;;;12.38;11.15;;;;;;;;;;4946303;28;20043;-70
2021/12/13 14:24:39;;;;;;;13.63;12.45;;;;;;;;;;4960080;28;20470;-71
2021/12/13 14:27:24;;;;;;;12.88;11.82;;;;;;;;;;4940611;28;20051;-70
2021/12/13 14:30:17;;;;;;;13.13;12.00;;;;;;;;;;4946115;29;20445;-69
2021/12/13 14:32:45;;;;;;;13.13;12.05;;;;;;;;;;4944092;29;20054;-70
2021/12/13 14:35:19;;;;;;;13.18;11.98;;;;;;;;;;4949881;29;20126;-70
2021/12/13 14:37:47;;;;;;;14.43;13.02;;;;;;;;;;4942521;29;20027;-69
2021/12/13 14:40:13;;;;;;;17.38;13.30;;;;;;;;;;4946094;29;20092;-69
2021/12/13 14:42:39;;;;;;;14.43;13.05;;;;;;;;;;4949896;28;20464;-70
2021/12/13 14:45:23;;;;;;;13.80;12.60;;;;;;;;;;4955722;28;20078;-70
2021/12/13 14:47:52;;;;;;;14.32;12.95;;;;;;;;;;4947076;29;20403;-69
2021/12/13 14:50:28;;;;;;;17.88;16.13;;;;;;;;;;4946246;29;20047;-70
2021/12/13 14:52:55;;;;;;;14.43;12.85;;;;;;;;;;4930022;29;20047;-69
2021/12/13 14:55:26;;;;;;;14.25;12.93;;;;;;;;;;4950829;28;20151;-69
2021/12/13 14:58:05;;;;;;;23.08;20.88;;;;;;;;;;4944196;29;20043;-69
2021/12/13 15:00:40;;;;;;;17.00;15.30;;;;;;;;;;4943100;28;20054;-69
2021/12/13 15:03:13;;;;;;;13.20;12.10;;;;;;;;;;4941733;29;20443;-70
2021/12/13 15:05:47;;;;;;;14.80;13.52;;;;;;;;;;4928213;29;20114;-68
2021/12/13 15:08:16;;;;;;;25.02;18.00;;;;;;;;;;4946306;29;20387;-69
2021/12/13 15:10:48;;;;;;;40.65;26.70;;;;;;;;;;4933016;29;20123;-70